createdAt,value
2018-09-26T00:04:08.682Z,102295.33
2018-09-26T00:09:13.051Z,102285.00
2018-09-26T00:14:16.512Z,102290.40
2018-09-26T00:19:19.954Z,102289.84
2018-09-26T00:24:23.396Z,102292.62
2018-09-26T00:29:26.847Z,102286.34
2018-09-26T00:34:30.278Z,102293.58
2018-09-26T00:39:33.795Z,102275.11
2018-09-26T00:44:37.305Z,102272.84
2018-09-26T00:49:40.746Z,102272.84
2018-09-26T00:54:44.195Z,102280.51
2018-09-26T00:59:47.699Z,102281.55
2018-09-26T01:04:51.164Z,102278.56
2018-09-26T01:09:54.611Z,102278.39
2018-09-26T01:14:58.103Z,102277.39
2018-09-26T01:20:01.564Z,102264.89
2018-09-26T01:25:05.219Z,102266.77
2018-09-26T01:30:08.680Z,102249.13
2018-09-26T01:35:12.123Z,102235.03
2018-09-26T01:40:15.569Z,102241.56
2018-09-26T01:45:19.044Z,102243.17
2018-09-26T01:50:22.504Z,102236.61
2018-09-26T01:55:25.952Z,102221.48
2018-09-26T02:00:29.387Z,102215.37
2018-09-26T02:05:32.822Z,102212.34
2018-09-26T02:10:36.288Z,102202.14
2018-09-26T02:15:39.777Z,102189.28
2018-09-26T02:20:43.252Z,102188.91
2018-09-26T02:25:46.707Z,102181.91
2018-09-26T02:30:50.172Z,102173.47
2018-09-26T02:35:53.618Z,102171.31
2018-09-26T02:40:57.068Z,102158.89
2018-09-26T02:46:00.531Z,102155.39
2018-09-26T02:51:04.012Z,102169.37
2018-09-26T02:56:07.461Z,102188.32
2018-09-26T03:01:10.924Z,102196.59
2018-09-26T03:06:14.395Z,102179.61
2018-09-26T03:11:17.886Z,102180.13
2018-09-26T03:16:21.371Z,102178.44
2018-09-26T03:21:24.846Z,102167.77
2018-09-26T03:26:28.334Z,102162.38
2018-09-26T03:31:31.902Z,102142.38
2018-09-26T03:36:35.352Z,102154.98
2018-09-26T03:41:38.842Z,102153.56
2018-09-26T03:46:42.347Z,102156.84
2018-09-26T03:51:45.817Z,102151.99
2018-09-26T03:56:49.275Z,102147.81
2018-09-26T04:01:52.727Z,102148.45
2018-09-26T04:06:56.177Z,102150.17
2018-09-26T04:11:59.650Z,102158.01
2018-09-26T04:17:03.188Z,102153.24
2018-09-26T04:22:06.699Z,102132.59
2018-09-26T04:27:10.168Z,102132.08
2018-09-26T04:32:13.653Z,102136.62
2018-09-26T04:37:17.103Z,102149.30
2018-09-26T04:42:20.551Z,102149.54
2018-09-26T04:47:24.148Z,102158.75
2018-09-26T04:52:27.676Z,102152.22
2018-09-26T04:57:31.235Z,102135.80
2018-09-26T05:02:34.759Z,102146.00
2018-09-26T05:07:38.964Z,102134.55
2018-09-26T05:12:42.501Z,102125.42
2018-09-26T05:17:46.117Z,102124.82
2018-09-26T05:22:49.659Z,102109.39
2018-09-26T05:27:53.099Z,102110.10
2018-09-26T05:32:56.547Z,102096.02
2018-09-26T05:38:00.033Z,102097.63
2018-09-26T05:43:03.492Z,102097.95
2018-09-26T05:48:07.000Z,102103.70
2018-09-26T05:53:10.505Z,102103.15
2018-09-26T05:58:13.995Z,102094.89
2018-09-26T06:03:17.507Z,102083.09
2018-09-26T06:08:21.013Z,102087.94
2018-09-26T06:13:24.546Z,102089.16
2018-09-26T06:18:28.230Z,102082.34
2018-09-26T06:23:31.833Z,102086.73
2018-09-26T06:28:35.342Z,102075.85
2018-09-26T06:33:38.826Z,102073.09
2018-09-26T06:38:42.314Z,102073.41
2018-09-26T06:43:46.026Z,102070.00
2018-09-26T06:48:49.509Z,102072.76
2018-09-26T06:53:53.077Z,102073.50
2018-09-26T06:58:56.552Z,102062.89
2018-09-26T07:04:00.031Z,102065.98
2018-09-26T07:09:03.826Z,102059.84
2018-09-26T07:14:07.324Z,102063.06
2018-09-26T07:19:10.910Z,102075.70
2018-09-26T07:24:14.408Z,102072.44
2018-09-26T07:29:17.919Z,102088.94
2018-09-26T07:34:25.834Z,102084.78
2018-09-26T07:39:31.075Z,102087.14
2018-09-26T07:44:34.641Z,102094.96
2018-09-26T07:49:38.127Z,102081.28
2018-09-26T07:54:41.688Z,102091.75
2018-09-26T07:59:45.386Z,102081.81
2018-09-26T08:04:48.888Z,102076.02
2018-09-26T08:09:52.540Z,102087.39
2018-09-26T08:14:56.065Z,102069.52
2018-09-26T08:19:59.540Z,102064.94
2018-09-26T08:25:02.995Z,102067.99
2018-09-26T08:30:06.699Z,102053.28
2018-09-26T08:35:10.213Z,102045.85
2018-09-26T08:40:13.703Z,102046.73
2018-09-26T08:45:17.275Z,102051.36
2018-09-26T08:50:20.802Z,102044.22
2018-09-26T08:55:24.279Z,102031.62
2018-09-26T09:00:33.108Z,102027.77
2018-09-26T09:05:36.903Z,102023.17
2018-09-26T09:10:40.411Z,102014.30
2018-09-26T09:15:43.878Z,102010.33
2018-09-26T09:20:47.311Z,102000.14
2018-09-26T09:25:50.766Z,102005.01
2018-09-26T09:30:54.219Z,102003.66
2018-09-26T09:35:57.727Z,102001.88
2018-09-26T09:41:02.155Z,101996.09
2018-09-26T09:46:06.158Z,101987.03
2018-09-26T09:51:09.588Z,101981.28
2018-09-26T09:56:13.033Z,101974.70
2018-09-26T10:01:21.764Z,101949.10
2018-09-26T10:06:25.303Z,101948.48
2018-09-26T10:11:29.084Z,101941.27
2018-09-26T10:16:32.551Z,101941.55
2018-09-26T10:21:35.995Z,101943.70
2018-09-26T10:26:39.435Z,101940.28
2018-09-26T10:31:42.886Z,101924.78
2018-09-26T10:36:46.361Z,101935.63
2018-09-26T10:41:50.563Z,101926.68
2018-09-26T10:46:54.027Z,101924.03
2018-09-26T10:51:57.528Z,101929.38
2018-09-26T10:57:00.981Z,101927.20
2018-09-26T11:02:04.496Z,101917.10
2018-09-26T11:07:07.889Z,101903.83
2018-09-26T11:12:11.346Z,101891.23
2018-09-26T11:17:14.782Z,101878.23
2018-09-26T11:22:18.220Z,101881.80
2018-09-26T11:27:21.712Z,101880.89
2018-09-26T11:32:25.209Z,101874.00
2018-09-26T11:37:28.657Z,101876.62
2018-09-26T11:42:32.162Z,101870.16
2018-09-26T11:47:35.589Z,101869.02
2018-09-26T11:52:39.060Z,101858.71
2018-09-26T11:57:42.512Z,101848.96
2018-09-26T12:02:45.995Z,101842.55
2018-09-26T12:07:49.450Z,101826.50
2018-09-26T12:12:52.905Z,101819.25
2018-09-26T12:17:56.357Z,101811.64
2018-09-26T12:22:59.786Z,101811.16
2018-09-26T12:28:03.248Z,101802.61
2018-09-26T12:33:06.828Z,101794.92
2018-09-26T12:38:10.260Z,101793.97
2018-09-26T12:43:13.728Z,101781.37
2018-09-26T12:48:17.190Z,101768.85
2018-09-26T12:53:20.673Z,101766.16
2018-09-26T12:58:24.377Z,101759.90
2018-09-26T13:03:27.806Z,101745.63
2018-09-26T13:08:31.275Z,101741.98
2018-09-26T13:13:34.716Z,101735.17
2018-09-26T13:18:38.148Z,101724.66
2018-09-26T13:23:41.588Z,101718.72
2018-09-26T13:28:45.093Z,101720.45
2018-09-26T13:33:48.550Z,101706.98
2018-09-26T13:38:52.048Z,101690.77
2018-09-26T13:43:55.551Z,101684.43
2018-09-26T13:48:59.009Z,101687.99
2018-09-26T13:54:02.512Z,101682.61
2018-09-26T13:59:05.978Z,101680.30
2018-09-26T14:04:09.544Z,101663.27
2018-09-26T14:09:13.018Z,101655.66
2018-09-26T14:14:17.120Z,101650.66
2018-09-26T14:19:20.593Z,101645.83
2018-09-26T14:24:24.401Z,101635.53
2018-09-26T14:29:28.092Z,101632.14
2018-09-26T14:34:31.865Z,101628.41
2018-09-26T14:39:35.766Z,101621.45
2018-09-26T14:44:39.422Z,101604.19
2018-09-26T14:49:43.210Z,101595.94
2018-09-26T14:54:46.917Z,101596.75
2018-09-26T14:59:50.693Z,101592.63
2018-09-26T15:04:55.832Z,101591.58
2018-09-26T15:09:59.506Z,101598.97
2018-09-26T15:15:03.352Z,101591.22
2018-09-26T15:20:07.294Z,101576.30
2018-09-26T15:25:10.963Z,101572.56
2018-09-26T15:30:14.685Z,101568.86
2018-09-26T15:35:18.473Z,101567.41
2018-09-26T15:40:22.263Z,101567.03
2018-09-26T15:45:25.936Z,101567.59
2018-09-26T15:50:29.649Z,101567.18
2018-09-26T15:55:33.435Z,101565.33
2018-09-26T16:00:37.067Z,101558.29
2018-09-26T16:05:40.510Z,101551.78
2018-09-26T16:10:43.989Z,101558.13
2018-09-26T16:15:47.431Z,101565.25
2018-09-26T16:20:50.872Z,101559.77
2018-09-26T16:25:54.406Z,101563.34
2018-09-26T16:30:57.816Z,101566.52
2018-09-26T16:36:01.250Z,101552.33
2018-09-26T16:41:04.697Z,101553.22
2018-09-26T16:46:08.152Z,101551.31
2018-09-26T16:51:11.603Z,101543.47
2018-09-26T16:56:15.048Z,101547.27
2018-09-26T17:01:18.497Z,101555.58
2018-09-26T17:06:21.990Z,101566.63
2018-09-26T17:11:25.602Z,101570.33
2018-09-26T17:16:29.041Z,101570.98
2018-09-26T17:21:32.480Z,101569.20
2018-09-26T17:26:35.951Z,101561.38
2018-09-26T17:31:39.391Z,101560.26
2018-09-26T17:36:42.870Z,101551.44
2018-09-26T17:41:46.320Z,101543.22
2018-09-26T17:46:49.816Z,101546.92
2018-09-26T17:51:53.263Z,101551.61
2018-09-26T17:56:56.720Z,101552.73
2018-09-26T18:02:00.209Z,101552.72
2018-09-26T18:07:03.756Z,101547.36
2018-09-26T18:12:07.304Z,101558.16
2018-09-26T18:17:10.807Z,101549.45
2018-09-26T18:22:14.351Z,101550.25
2018-09-26T18:27:17.859Z,101540.97
2018-09-26T18:32:21.423Z,101537.70
2018-09-26T18:37:25.682Z,101544.68
2018-09-26T18:42:29.152Z,101545.94
2018-09-26T18:47:32.594Z,101546.81
2018-09-26T18:52:36.048Z,101545.37
2018-09-26T18:57:40.713Z,101545.42
2018-09-26T19:02:44.413Z,101550.58
2018-09-26T19:07:47.871Z,101549.08
2018-09-26T19:12:51.409Z,101553.91
2018-09-26T19:17:54.977Z,101553.52
2018-09-26T19:22:58.595Z,101542.68
2018-09-26T19:28:02.297Z,101542.68
2018-09-26T19:33:05.934Z,101538.48
2018-09-26T19:38:09.502Z,101539.83
2018-09-26T19:43:12.966Z,101536.46
2018-09-26T19:48:16.933Z,101541.41
2018-09-26T19:53:20.423Z,101548.22
2018-09-26T19:58:23.971Z,101558.85
2018-09-26T20:03:27.369Z,101556.29
2018-09-26T20:08:30.804Z,101553.53
2018-09-26T20:13:34.268Z,101554.02
2018-09-26T20:18:37.701Z,101562.11
2018-09-26T20:23:41.155Z,101560.34
2018-09-26T20:28:44.638Z,101563.52
2018-09-26T20:33:48.132Z,101561.15
2018-09-26T20:38:51.676Z,101553.82
2018-09-26T20:43:55.111Z,101554.69
2018-09-26T20:48:58.587Z,101562.31
2018-09-26T20:54:02.170Z,101564.05
2018-09-26T20:59:05.701Z,101569.00
2018-09-26T21:04:09.240Z,101583.57
2018-09-26T21:09:15.402Z,101583.18
2018-09-26T21:14:18.892Z,101588.91
2018-09-26T21:19:22.545Z,101593.34
2018-09-26T21:24:26.027Z,101588.43
2018-09-26T21:29:29.492Z,101596.92
2018-09-26T21:34:33.019Z,101589.20
2018-09-26T21:39:36.510Z,101579.27
2018-09-26T21:44:39.938Z,101579.59
2018-09-26T21:49:43.427Z,101571.97
2018-09-26T21:54:46.888Z,101576.47
2018-09-26T21:59:50.369Z,101572.84
2018-09-26T22:04:53.869Z,101573.71
2018-09-26T22:09:57.328Z,101576.80
2018-09-26T22:15:00.941Z,101574.00
2018-09-26T22:20:04.520Z,101568.98
2018-09-26T22:25:07.953Z,101584.72
2018-09-26T22:30:11.462Z,101587.99
2018-09-26T22:35:14.989Z,101585.67
2018-09-26T22:40:18.489Z,101582.49
2018-09-26T22:45:21.999Z,101577.89
2018-09-26T22:50:25.509Z,101578.38
2018-09-26T22:55:28.976Z,101581.08
2018-09-26T23:00:32.416Z,101568.92
2018-09-26T23:05:35.874Z,101568.83
2018-09-26T23:10:39.353Z,101570.66
2018-09-26T23:15:42.786Z,101569.70
2018-09-26T23:20:46.276Z,101573.75
2018-09-26T23:25:49.780Z,101564.78
2018-09-26T23:30:53.247Z,101561.20
2018-09-26T23:35:56.725Z,101557.55
2018-09-26T23:41:00.269Z,101556.19
2018-09-26T23:46:03.717Z,101562.78
2018-09-26T23:51:07.247Z,101560.15
2018-09-26T23:56:10.721Z,101556.67
